sensor_id;sensor_type;location;lat;lon;timestamp;P1;durP1;ratioP1;P2;durP2;ratioP2
21206;SDS011;10761;48.532;8.026;2023-09-18T00:01:37;5.22;;;2.22;;
21206;SDS011;10761;48.532;8.026;2023-09-18T00:04:06;4.43;;;2.30;;
21206;SDS011;10761;48.532;8.026;2023-09-18T00:06:32;5.43;;;2.53;;
21206;SDS011;10761;48.532;8.026;2023-09-18T00:08:58;9.18;;;2.78;;
21206;SDS011;10761;48.532;8.026;2023-09-18T00:11:24;7.53;;;2.90;;
21206;SDS011;10761;48.532;8.026;2023-09-18T00:13:49;6.53;;;2.40;;
21206;SDS011;10761;48.532;8.026;2023-09-18T00:16:15;5.70;;;2.70;;
21206;SDS011;10761;48.532;8.026;2023-09-18T00:18:41;5.15;;;2.30;;
21206;SDS011;10761;48.532;8.026;2023-09-18T00:21:07;7.45;;;2.40;;
21206;SDS011;10761;48.532;8.026;2023-09-18T00:23:35;5.38;;;2.30;;
21206;SDS011;10761;48.532;8.026;2023-09-18T00:26:04;7.03;;;2.33;;
21206;SDS011;10761;48.532;8.026;2023-09-18T00:28:29;4.78;;;2.47;;
21206;SDS011;10761;48.532;8.026;2023-09-18T00:30:55;5.38;;;2.47;;
21206;SDS011;10761;48.532;8.026;2023-09-18T00:33:20;8.65;;;2.78;;
21206;SDS011;10761;48.532;8.026;2023-09-18T00:35:49;6.20;;;2.35;;
21206;SDS011;10761;48.532;8.026;2023-09-18T00:38:16;7.40;;;2.20;;
21206;SDS011;10761;48.532;8.026;2023-09-18T00:40:42;4.22;;;1.90;;
21206;SDS011;10761;48.532;8.026;2023-09-18T00:43:08;5.15;;;1.75;;
21206;SDS011;10761;48.532;8.026;2023-09-18T00:45:36;4.05;;;2.10;;
21206;SDS011;10761;48.532;8.026;2023-09-18T00:48:05;10.32;;;2.00;;
21206;SDS011;10761;48.532;8.026;2023-09-18T00:50:31;8.07;;;1.90;;
21206;SDS011;10761;48.532;8.026;2023-09-18T00:52:57;7.38;;;2.03;;
21206;SDS011;10761;48.532;8.026;2023-09-18T00:55:24;4.20;;;1.83;;
21206;SDS011;10761;48.532;8.026;2023-09-18T00:57:49;6.47;;;2.30;;
21206;SDS011;10761;48.532;8.026;2023-09-18T01:00:15;8.35;;;2.03;;
21206;SDS011;10761;48.532;8.026;2023-09-18T01:02:42;4.70;;;2.20;;
21206;SDS011;10761;48.532;8.026;2023-09-18T01:05:10;16.45;;;2.75;;
21206;SDS011;10761;48.532;8.026;2023-09-18T01:07:35;19.13;;;2.72;;
21206;SDS011;10761;48.532;8.026;2023-09-18T01:10:01;7.35;;;2.55;;
21206;SDS011;10761;48.532;8.026;2023-09-18T01:12:39;7.03;;;2.53;;
21206;SDS011;10761;48.532;8.026;2023-09-18T01:17:51;7.75;;;2.20;;
21206;SDS011;10761;48.532;8.026;2023-09-18T01:20:17;8.70;;;2.90;;
21206;SDS011;10761;48.532;8.026;2023-09-18T01:22:42;12.25;;;2.63;;
21206;SDS011;10761;48.532;8.026;2023-09-18T01:25:08;5.82;;;2.20;;
21206;SDS011;10761;48.532;8.026;2023-09-18T01:27:34;3.35;;;2.10;;
21206;SDS011;10761;48.532;8.026;2023-09-18T01:30:00;5.38;;;2.30;;
21206;SDS011;10761;48.532;8.026;2023-09-18T01:32:26;6.35;;;2.45;;
21206;SDS011;10761;48.532;8.026;2023-09-18T01:34:55;8.57;;;2.50;;
21206;SDS011;10761;48.532;8.026;2023-09-18T01:37:29;7.68;;;2.97;;
21206;SDS011;10761;48.532;8.026;2023-09-18T01:39:56;7.00;;;2.72;;
21206;SDS011;10761;48.532;8.026;2023-09-18T01:42:25;7.47;;;2.40;;
21206;SDS011;10761;48.532;8.026;2023-09-18T01:44:52;8.32;;;3.20;;
21206;SDS011;10761;48.532;8.026;2023-09-18T01:47:19;8.90;;;2.65;;
21206;SDS011;10761;48.532;8.026;2023-09-18T01:49:46;4.70;;;2.67;;
21206;SDS011;10761;48.532;8.026;2023-09-18T01:52:12;6.03;;;2.67;;
21206;SDS011;10761;48.532;8.026;2023-09-18T01:54:38;7.82;;;2.90;;
21206;SDS011;10761;48.532;8.026;2023-09-18T01:57:04;6.78;;;3.10;;
21206;SDS011;10761;48.532;8.026;2023-09-18T01:59:30;7.63;;;3.03;;
21206;SDS011;10761;48.532;8.026;2023-09-18T02:01:56;11.20;;;2.85;;
21206;SDS011;10761;48.532;8.026;2023-09-18T02:04:22;7.88;;;3.00;;
21206;SDS011;10761;48.532;8.026;2023-09-18T02:06:49;5.78;;;2.67;;
21206;SDS011;10761;48.532;8.026;2023-09-18T02:09:15;6.03;;;2.97;;
21206;SDS011;10761;48.532;8.026;2023-09-18T02:11:43;7.95;;;2.85;;
21206;SDS011;10761;48.532;8.026;2023-09-18T02:14:09;4.78;;;2.60;;
21206;SDS011;10761;48.532;8.026;2023-09-18T02:16:36;6.55;;;2.92;;
21206;SDS011;10761;48.532;8.026;2023-09-18T02:19:05;6.25;;;3.17;;
21206;SDS011;10761;48.532;8.026;2023-09-18T02:21:33;9.23;;;2.70;;
21206;SDS011;10761;48.532;8.026;2023-09-18T02:23:59;11.38;;;3.10;;
21206;SDS011;10761;48.532;8.026;2023-09-18T02:26:24;7.03;;;2.72;;
21206;SDS011;10761;48.532;8.026;2023-09-18T02:28:53;4.80;;;2.88;;
21206;SDS011;10761;48.532;8.026;2023-09-18T02:31:19;7.47;;;3.15;;
21206;SDS011;10761;48.532;8.026;2023-09-18T02:33:45;6.70;;;3.28;;
21206;SDS011;10761;48.532;8.026;2023-09-18T02:36:12;8.15;;;3.00;;
21206;SDS011;10761;48.532;8.026;2023-09-18T02:38:40;8.90;;;3.67;;
21206;SDS011;10761;48.532;8.026;2023-09-18T02:41:06;8.02;;;3.22;;
21206;SDS011;10761;48.532;8.026;2023-09-18T02:43:32;7.53;;;3.20;;
21206;SDS011;10761;48.532;8.026;2023-09-18T02:45:57;8.52;;;3.60;;
21206;SDS011;10761;48.532;8.026;2023-09-18T02:48:23;9.07;;;3.35;;
21206;SDS011;10761;48.532;8.026;2023-09-18T02:50:48;7.43;;;3.30;;
21206;SDS011;10761;48.532;8.026;2023-09-18T02:53:18;10.80;;;3.40;;
21206;SDS011;10761;48.532;8.026;2023-09-18T02:55:53;10.88;;;3.17;;
21206;SDS011;10761;48.532;8.026;2023-09-18T02:58:20;8.45;;;3.20;;
21206;SDS011;10761;48.532;8.026;2023-09-18T03:00:48;11.02;;;3.22;;
21206;SDS011;10761;48.532;8.026;2023-09-18T03:03:15;8.52;;;3.28;;
21206;SDS011;10761;48.532;8.026;2023-09-18T03:05:41;15.93;;;4.25;;
21206;SDS011;10761;48.532;8.026;2023-09-18T03:08:08;15.85;;;4.47;;
21206;SDS011;10761;48.532;8.026;2023-09-18T03:10:34;11.93;;;4.88;;
21206;SDS011;10761;48.532;8.026;2023-09-18T03:13:01;16.38;;;5.18;;
21206;SDS011;10761;48.532;8.026;2023-09-18T03:15:27;13.27;;;4.63;;
21206;SDS011;10761;48.532;8.026;2023-09-18T03:17:53;18.05;;;4.82;;
21206;SDS011;10761;48.532;8.026;2023-09-18T03:20:21;17.17;;;5.30;;
21206;SDS011;10761;48.532;8.026;2023-09-18T03:22:48;16.35;;;4.60;;
21206;SDS011;10761;48.532;8.026;2023-09-18T03:25:15;17.05;;;4.72;;
21206;SDS011;10761;48.532;8.026;2023-09-18T03:27:41;11.93;;;4.50;;
21206;SDS011;10761;48.532;8.026;2023-09-18T03:30:06;13.05;;;4.10;;
21206;SDS011;10761;48.532;8.026;2023-09-18T03:32:32;14.68;;;4.25;;
21206;SDS011;10761;48.532;8.026;2023-09-18T03:34:58;13.57;;;4.15;;
21206;SDS011;10761;48.532;8.026;2023-09-18T03:37:23;13.40;;;4.35;;
21206;SDS011;10761;48.532;8.026;2023-09-18T03:39:49;10.85;;;3.67;;
21206;SDS011;10761;48.532;8.026;2023-09-18T03:42:15;11.82;;;3.45;;
21206;SDS011;10761;48.532;8.026;2023-09-18T03:44:40;11.60;;;3.92;;
21206;SDS011;10761;48.532;8.026;2023-09-18T03:47:06;11.18;;;3.55;;
21206;SDS011;10761;48.532;8.026;2023-09-18T03:49:31;10.23;;;2.83;;
21206;SDS011;10761;48.532;8.026;2023-09-18T03:51:57;9.75;;;3.20;;
21206;SDS011;10761;48.532;8.026;2023-09-18T03:54:22;11.10;;;3.33;;
21206;SDS011;10761;48.532;8.026;2023-09-18T03:56:48;8.98;;;3.60;;
21206;SDS011;10761;48.532;8.026;2023-09-18T03:59:14;7.00;;;3.00;;
21206;SDS011;10761;48.532;8.026;2023-09-18T04:01:39;9.70;;;2.85;;
21206;SDS011;10761;48.532;8.026;2023-09-18T04:04:05;9.25;;;2.47;;
21206;SDS011;10761;48.532;8.026;2023-09-18T04:06:40;8.65;;;2.65;;
21206;SDS011;10761;48.532;8.026;2023-09-18T04:09:06;8.85;;;2.85;;
21206;SDS011;10761;48.532;8.026;2023-09-18T04:11:32;8.93;;;3.10;;
21206;SDS011;10761;48.532;8.026;2023-09-18T04:13:58;7.22;;;2.25;;
21206;SDS011;10761;48.532;8.026;2023-09-18T04:16:25;11.45;;;2.80;;
21206;SDS011;10761;48.532;8.026;2023-09-18T04:18:53;6.43;;;2.10;;
21206;SDS011;10761;48.532;8.026;2023-09-18T04:21:18;5.88;;;2.10;;
21206;SDS011;10761;48.532;8.026;2023-09-18T04:23:46;7.75;;;1.98;;
21206;SDS011;10761;48.532;8.026;2023-09-18T04:26:12;4.82;;;2.05;;
21206;SDS011;10761;48.532;8.026;2023-09-18T04:28:40;8.60;;;2.00;;
21206;SDS011;10761;48.532;8.026;2023-09-18T04:31:06;6.97;;;1.98;;
21206;SDS011;10761;48.532;8.026;2023-09-18T04:33:31;10.60;;;2.10;;
21206;SDS011;10761;48.532;8.026;2023-09-18T04:35:57;5.72;;;1.48;;
21206;SDS011;10761;48.532;8.026;2023-09-18T04:38:23;4.90;;;1.63;;
21206;SDS011;10761;48.532;8.026;2023-09-18T04:40:48;5.28;;;1.48;;
21206;SDS011;10761;48.532;8.026;2023-09-18T04:43:14;7.22;;;1.65;;
21206;SDS011;10761;48.532;8.026;2023-09-18T04:45:39;3.70;;;1.30;;
21206;SDS011;10761;48.532;8.026;2023-09-18T04:48:05;4.60;;;1.60;;
21206;SDS011;10761;48.532;8.026;2023-09-18T04:50:33;3.08;;;1.45;;
21206;SDS011;10761;48.532;8.026;2023-09-18T04:52:59;3.20;;;1.10;;
21206;SDS011;10761;48.532;8.026;2023-09-18T04:55:24;7.10;;;1.38;;
21206;SDS011;10761;48.532;8.026;2023-09-18T04:57:50;4.55;;;1.10;;
21206;SDS011;10761;48.532;8.026;2023-09-18T05:00:15;2.65;;;1.00;;
21206;SDS011;10761;48.532;8.026;2023-09-18T05:02:41;5.13;;;1.20;;
21206;SDS011;10761;48.532;8.026;2023-09-18T05:05:07;4.25;;;1.30;;
21206;SDS011;10761;48.532;8.026;2023-09-18T05:07:36;3.22;;;1.08;;
21206;SDS011;10761;48.532;8.026;2023-09-18T05:10:02;3.83;;;1.40;;
21206;SDS011;10761;48.532;8.026;2023-09-18T05:12:29;7.18;;;1.48;;
21206;SDS011;10761;48.532;8.026;2023-09-18T05:14:55;7.75;;;1.45;;
21206;SDS011;10761;48.532;8.026;2023-09-18T05:17:27;4.38;;;1.20;;
21206;SDS011;10761;48.532;8.026;2023-09-18T05:20:17;5.68;;;1.15;;
21206;SDS011;10761;48.532;8.026;2023-09-18T05:22:43;4.28;;;1.55;;
21206;SDS011;10761;48.532;8.026;2023-09-18T05:25:09;5.72;;;1.25;;
21206;SDS011;10761;48.532;8.026;2023-09-18T05:27:35;4.72;;;1.15;;
21206;SDS011;10761;48.532;8.026;2023-09-18T05:30:09;5.50;;;1.45;;
21206;SDS011;10761;48.532;8.026;2023-09-18T05:32:40;4.53;;;1.43;;
21206;SDS011;10761;48.532;8.026;2023-09-18T05:35:06;4.97;;;1.60;;
21206;SDS011;10761;48.532;8.026;2023-09-18T05:37:34;6.65;;;1.33;;
21206;SDS011;10761;48.532;8.026;2023-09-18T05:40:02;4.10;;;1.20;;
21206;SDS011;10761;48.532;8.026;2023-09-18T05:42:30;9.13;;;1.25;;
21206;SDS011;10761;48.532;8.026;2023-09-18T05:44:56;2.65;;;1.30;;
21206;SDS011;10761;48.532;8.026;2023-09-18T05:47:21;6.20;;;1.15;;
21206;SDS011;10761;48.532;8.026;2023-09-18T05:49:48;6.13;;;1.10;;
21206;SDS011;10761;48.532;8.026;2023-09-18T05:52:14;7.78;;;1.05;;
21206;SDS011;10761;48.532;8.026;2023-09-18T05:54:39;3.20;;;1.00;;
21206;SDS011;10761;48.532;8.026;2023-09-18T05:57:05;4.13;;;1.10;;
21206;SDS011;10761;48.532;8.026;2023-09-18T05:59:32;4.80;;;0.98;;
21206;SDS011;10761;48.532;8.026;2023-09-18T06:01:57;5.97;;;1.20;;
21206;SDS011;10761;48.532;8.026;2023-09-18T06:04:23;3.70;;;1.08;;
21206;SDS011;10761;48.532;8.026;2023-09-18T06:06:49;5.07;;;1.20;;
21206;SDS011;10761;48.532;8.026;2023-09-18T06:09:16;4.75;;;1.30;;
21206;SDS011;10761;48.532;8.026;2023-09-18T06:11:41;2.03;;;0.98;;
21206;SDS011;10761;48.532;8.026;2023-09-18T06:14:07;4.78;;;0.80;;
21206;SDS011;10761;48.532;8.026;2023-09-18T06:16:33;4.00;;;0.90;;
21206;SDS011;10761;48.532;8.026;2023-09-18T06:18:58;5.90;;;1.25;;
21206;SDS011;10761;48.532;8.026;2023-09-18T06:21:25;3.58;;;1.10;;
21206;SDS011;10761;48.532;8.026;2023-09-18T06:23:50;5.40;;;1.30;;
21206;SDS011;10761;48.532;8.026;2023-09-18T06:26:16;5.90;;;1.00;;
21206;SDS011;10761;48.532;8.026;2023-09-18T06:28:43;4.45;;;1.00;;
21206;SDS011;10761;48.532;8.026;2023-09-18T06:31:08;4.65;;;1.38;;
21206;SDS011;10761;48.532;8.026;2023-09-18T06:33:34;3.65;;;1.05;;
21206;SDS011;10761;48.532;8.026;2023-09-18T06:36:00;4.15;;;0.90;;
21206;SDS011;10761;48.532;8.026;2023-09-18T06:38:25;2.72;;;0.82;;
21206;SDS011;10761;48.532;8.026;2023-09-18T06:40:51;3.53;;;1.05;;
21206;SDS011;10761;48.532;8.026;2023-09-18T06:43:18;2.40;;;1.00;;
21206;SDS011;10761;48.532;8.026;2023-09-18T06:45:43;3.78;;;0.75;;
21206;SDS011;10761;48.532;8.026;2023-09-18T06:48:09;3.53;;;0.88;;
21206;SDS011;10761;48.532;8.026;2023-09-18T06:50:34;5.03;;;0.90;;
21206;SDS011;10761;48.532;8.026;2023-09-18T06:53:01;1.80;;;0.95;;
21206;SDS011;10761;48.532;8.026;2023-09-18T06:55:27;2.38;;;0.70;;
21206;SDS011;10761;48.532;8.026;2023-09-18T06:57:52;2.67;;;0.70;;
21206;SDS011;10761;48.532;8.026;2023-09-18T07:00:18;5.10;;;1.13;;
21206;SDS011;10761;48.532;8.026;2023-09-18T07:02:45;2.75;;;0.80;;
21206;SDS011;10761;48.532;8.026;2023-09-18T07:05:11;2.30;;;0.90;;
21206;SDS011;10761;48.532;8.026;2023-09-18T07:07:37;4.65;;;0.90;;
21206;SDS011;10761;48.532;8.026;2023-09-18T07:10:03;4.35;;;0.95;;
21206;SDS011;10761;48.532;8.026;2023-09-18T07:12:29;1.90;;;0.80;;
21206;SDS011;10761;48.532;8.026;2023-09-18T07:14:54;5.22;;;1.10;;
21206;SDS011;10761;48.532;8.026;2023-09-18T07:17:20;6.85;;;1.65;;
21206;SDS011;10761;48.532;8.026;2023-09-18T07:19:46;4.90;;;1.35;;
21206;SDS011;10761;48.532;8.026;2023-09-18T07:22:11;6.40;;;1.60;;
21206;SDS011;10761;48.532;8.026;2023-09-18T07:24:37;4.13;;;1.10;;
21206;SDS011;10761;48.532;8.026;2023-09-18T07:27:05;3.20;;;1.10;;
21206;SDS011;10761;48.532;8.026;2023-09-18T07:29:31;6.90;;;1.50;;
21206;SDS011;10761;48.532;8.026;2023-09-18T07:31:58;4.78;;;1.15;;
21206;SDS011;10761;48.532;8.026;2023-09-18T07:34:26;2.65;;;1.10;;
21206;SDS011;10761;48.532;8.026;2023-09-18T07:36:52;5.25;;;1.20;;
21206;SDS011;10761;48.532;8.026;2023-09-18T07:39:20;7.63;;;1.40;;
21206;SDS011;10761;48.532;8.026;2023-09-18T07:41:45;4.28;;;1.33;;
21206;SDS011;10761;48.532;8.026;2023-09-18T07:44:12;3.28;;;1.40;;
21206;SDS011;10761;48.532;8.026;2023-09-18T07:46:43;4.53;;;1.10;;
21206;SDS011;10761;48.532;8.026;2023-09-18T07:49:09;4.95;;;1.30;;
21206;SDS011;10761;48.532;8.026;2023-09-18T07:51:34;6.30;;;1.27;;
21206;SDS011;10761;48.532;8.026;2023-09-18T07:54:00;3.40;;;1.35;;
21206;SDS011;10761;48.532;8.026;2023-09-18T07:56:26;2.47;;;1.15;;
21206;SDS011;10761;48.532;8.026;2023-09-18T07:58:52;4.45;;;1.30;;
21206;SDS011;10761;48.532;8.026;2023-09-18T08:01:18;5.00;;;1.40;;
21206;SDS011;10761;48.532;8.026;2023-09-18T08:03:47;13.27;;;4.00;;
21206;SDS011;10761;48.532;8.026;2023-09-18T08:06:13;6.32;;;1.60;;
21206;SDS011;10761;48.532;8.026;2023-09-18T08:08:43;3.10;;;1.88;;
21206;SDS011;10761;48.532;8.026;2023-09-18T08:11:09;9.60;;;1.42;;
21206;SDS011;10761;48.532;8.026;2023-09-18T08:13:35;6.03;;;1.40;;
21206;SDS011;10761;48.532;8.026;2023-09-18T08:16:01;8.32;;;1.80;;
21206;SDS011;10761;48.532;8.026;2023-09-18T08:18:28;6.82;;;1.30;;
21206;SDS011;10761;48.532;8.026;2023-09-18T08:20:54;4.47;;;1.42;;
21206;SDS011;10761;48.532;8.026;2023-09-18T08:23:22;5.15;;;1.50;;
21206;SDS011;10761;48.532;8.026;2023-09-18T08:25:48;5.68;;;2.05;;
21206;SDS011;10761;48.532;8.026;2023-09-18T08:28:16;2.65;;;1.23;;
21206;SDS011;10761;48.532;8.026;2023-09-18T08:30:42;5.07;;;1.20;;
21206;SDS011;10761;48.532;8.026;2023-09-18T08:33:12;4.82;;;1.25;;
21206;SDS011;10761;48.532;8.026;2023-09-18T08:35:38;3.80;;;1.30;;
21206;SDS011;10761;48.532;8.026;2023-09-18T08:38:04;3.67;;;1.27;;
21206;SDS011;10761;48.532;8.026;2023-09-18T08:40:30;4.90;;;1.38;;
21206;SDS011;10761;48.532;8.026;2023-09-18T08:42:56;9.10;;;1.75;;
21206;SDS011;10761;48.532;8.026;2023-09-18T08:45:43;4.20;;;1.45;;
21206;SDS011;10761;48.532;8.026;2023-09-18T08:48:09;8.20;;;2.03;;
21206;SDS011;10761;48.532;8.026;2023-09-18T08:50:36;6.13;;;1.52;;
21206;SDS011;10761;48.532;8.026;2023-09-18T08:53:03;4.40;;;1.58;;
21206;SDS011;10761;48.532;8.026;2023-09-18T08:55:28;3.70;;;1.10;;
21206;SDS011;10761;48.532;8.026;2023-09-18T08:57:55;3.55;;;0.95;;
21206;SDS011;10761;48.532;8.026;2023-09-18T09:00:23;2.45;;;1.00;;
21206;SDS011;10761;48.532;8.026;2023-09-18T09:02:48;2.35;;;1.00;;
21206;SDS011;10761;48.532;8.026;2023-09-18T09:05:16;2.63;;;0.73;;
21206;SDS011;10761;48.532;8.026;2023-09-18T09:07:42;2.42;;;0.90;;
21206;SDS011;10761;48.532;8.026;2023-09-18T09:10:07;2.05;;;1.00;;
21206;SDS011;10761;48.532;8.026;2023-09-18T09:12:46;2.92;;;0.90;;
21206;SDS011;10761;48.532;8.026;2023-09-18T09:15:19;3.10;;;1.00;;
21206;SDS011;10761;48.532;8.026;2023-09-18T09:18:01;4.10;;;1.25;;
21206;SDS011;10761;48.532;8.026;2023-09-18T09:20:29;4.10;;;1.00;;
21206;SDS011;10761;48.532;8.026;2023-09-18T09:22:55;4.07;;;0.80;;
21206;SDS011;10761;48.532;8.026;2023-09-18T09:25:29;1.42;;;0.70;;
21206;SDS011;10761;48.532;8.026;2023-09-18T09:27:59;3.42;;;0.95;;
21206;SDS011;10761;48.532;8.026;2023-09-18T09:30:28;2.90;;;1.10;;
21206;SDS011;10761;48.532;8.026;2023-09-18T09:32:55;1.60;;;0.77;;
21206;SDS011;10761;48.532;8.026;2023-09-18T09:35:32;4.32;;;1.10;;
21206;SDS011;10761;48.532;8.026;2023-09-18T09:38:00;3.75;;;0.85;;
21206;SDS011;10761;48.532;8.026;2023-09-18T09:40:31;3.50;;;0.80;;
21206;SDS011;10761;48.532;8.026;2023-09-18T09:42:57;2.75;;;0.90;;
21206;SDS011;10761;48.532;8.026;2023-09-18T09:45:30;2.80;;;0.90;;
21206;SDS011;10761;48.532;8.026;2023-09-18T09:48:00;1.55;;;0.70;;
21206;SDS011;10761;48.532;8.026;2023-09-18T09:50:29;3.90;;;0.77;;
21206;SDS011;10761;48.532;8.026;2023-09-18T09:52:55;3.20;;;0.80;;
21206;SDS011;10761;48.532;8.026;2023-09-18T09:55:31;2.75;;;0.90;;
21206;SDS011;10761;48.532;8.026;2023-09-18T09:57:59;2.15;;;0.80;;
21206;SDS011;10761;48.532;8.026;2023-09-18T10:00:31;2.67;;;0.50;;
21206;SDS011;10761;48.532;8.026;2023-09-18T10:03:07;1.77;;;0.70;;
21206;SDS011;10761;48.532;8.026;2023-09-18T10:05:35;2.67;;;0.80;;
21206;SDS011;10761;48.532;8.026;2023-09-18T10:08:04;2.53;;;0.88;;
21206;SDS011;10761;48.532;8.026;2023-09-18T10:10:36;2.17;;;0.90;;
21206;SDS011;10761;48.532;8.026;2023-09-18T10:13:51;3.03;;;0.90;;
21206;SDS011;10761;48.532;8.026;2023-09-18T10:15:57;2.83;;;1.73;;
21206;SDS011;10761;48.532;8.026;2023-09-18T10:21:03;4.38;;;0.70;;
21206;SDS011;10761;48.532;8.026;2023-09-18T10:26:32;1.90;;;0.80;;
21206;SDS011;10761;48.532;8.026;2023-09-18T10:31:30;2.58;;;0.93;;
21206;SDS011;10761;48.532;8.026;2023-09-18T10:33:59;4.28;;;0.55;;
21206;SDS011;10761;48.532;8.026;2023-09-18T10:36:28;4.10;;;0.90;;
21206;SDS011;10761;48.532;8.026;2023-09-18T10:38:55;2.15;;;0.80;;
21206;SDS011;10761;48.532;8.026;2023-09-18T10:41:23;2.22;;;0.75;;
21206;SDS011;10761;48.532;8.026;2023-09-18T10:43:52;1.70;;;0.80;;
21206;SDS011;10761;48.532;8.026;2023-09-18T10:46:18;5.78;;;0.98;;
21206;SDS011;10761;48.532;8.026;2023-09-18T10:48:45;3.53;;;0.90;;
21206;SDS011;10761;48.532;8.026;2023-09-18T10:51:12;1.95;;;0.80;;
21206;SDS011;10761;48.532;8.026;2023-09-18T10:53:39;2.42;;;0.80;;
21206;SDS011;10761;48.532;8.026;2023-09-18T10:56:05;1.38;;;0.80;;
21206;SDS011;10761;48.532;8.026;2023-09-18T10:58:31;1.67;;;0.80;;
21206;SDS011;10761;48.532;8.026;2023-09-18T11:01:00;2.28;;;0.95;;
21206;SDS011;10761;48.532;8.026;2023-09-18T11:03:27;2.75;;;0.90;;
21206;SDS011;10761;48.532;8.026;2023-09-18T11:06:03;2.97;;;1.00;;
21206;SDS011;10761;48.532;8.026;2023-09-18T11:08:44;4.07;;;0.85;;
21206;SDS011;10761;48.532;8.026;2023-09-18T11:11:11;2.13;;;0.90;;
21206;SDS011;10761;48.532;8.026;2023-09-18T11:13:50;1.25;;;0.73;;
21206;SDS011;10761;48.532;8.026;2023-09-18T11:18:53;3.70;;;0.90;;
21206;SDS011;10761;48.532;8.026;2023-09-18T11:21:31;1.27;;;1.00;;
21206;SDS011;10761;48.532;8.026;2023-09-18T11:24:04;1.08;;;0.90;;
21206;SDS011;10761;48.532;8.026;2023-09-18T11:26:41;1.15;;;0.80;;
21206;SDS011;10761;48.532;8.026;2023-09-18T11:29:08;2.55;;;0.60;;
21206;SDS011;10761;48.532;8.026;2023-09-18T11:34:24;3.00;;;0.90;;
21206;SDS011;10761;48.532;8.026;2023-09-18T11:36:56;4.35;;;0.98;;
21206;SDS011;10761;48.532;8.026;2023-09-18T11:44:35;2.65;;;0.80;;
21206;SDS011;10761;48.532;8.026;2023-09-18T11:47:06;2.58;;;0.80;;
21206;SDS011;10761;48.532;8.026;2023-09-18T11:49:37;3.47;;;0.88;;
21206;SDS011;10761;48.532;8.026;2023-09-18T11:52:07;1.33;;;0.88;;
21206;SDS011;10761;48.532;8.026;2023-09-18T11:54:34;2.85;;;0.90;;
21206;SDS011;10761;48.532;8.026;2023-09-18T11:57:03;1.08;;;0.90;;
21206;SDS011;10761;48.532;8.026;2023-09-18T11:59:38;3.15;;;1.00;;
21206;SDS011;10761;48.532;8.026;2023-09-18T12:02:07;3.67;;;0.88;;
21206;SDS011;10761;48.532;8.026;2023-09-18T12:04:33;1.83;;;0.75;;
21206;SDS011;10761;48.532;8.026;2023-09-18T12:06:59;4.32;;;0.88;;
21206;SDS011;10761;48.532;8.026;2023-09-18T12:09:32;5.53;;;1.25;;
21206;SDS011;10761;48.532;8.026;2023-09-18T12:11:59;4.65;;;0.95;;
21206;SDS011;10761;48.532;8.026;2023-09-18T12:14:30;2.53;;;0.95;;
21206;SDS011;10761;48.532;8.026;2023-09-18T12:16:57;0.98;;;0.82;;
21206;SDS011;10761;48.532;8.026;2023-09-18T12:19:23;2.95;;;0.98;;
21206;SDS011;10761;48.532;8.026;2023-09-18T12:21:50;2.53;;;0.90;;
21206;SDS011;10761;48.532;8.026;2023-09-18T12:24:22;2.38;;;0.80;;
21206;SDS011;10761;48.532;8.026;2023-09-18T12:26:50;6.05;;;1.08;;
21206;SDS011;10761;48.532;8.026;2023-09-18T12:29:17;0.73;;;0.70;;
21206;SDS011;10761;48.532;8.026;2023-09-18T12:31:44;6.40;;;1.40;;
21206;SDS011;10761;48.532;8.026;2023-09-18T12:34:14;3.35;;;0.90;;
21206;SDS011;10761;48.532;8.026;2023-09-18T12:36:43;1.48;;;0.80;;
21206;SDS011;10761;48.532;8.026;2023-09-18T12:39:12;1.48;;;0.90;;
21206;SDS011;10761;48.532;8.026;2023-09-18T12:41:41;1.90;;;0.80;;
21206;SDS011;10761;48.532;8.026;2023-09-18T12:44:11;1.95;;;0.80;;
21206;SDS011;10761;48.532;8.026;2023-09-18T12:46:37;4.10;;;0.90;;
21206;SDS011;10761;48.532;8.026;2023-09-18T12:49:18;1.90;;;0.88;;
21206;SDS011;10761;48.532;8.026;2023-09-18T12:51:55;4.80;;;0.90;;
21206;SDS011;10761;48.532;8.026;2023-09-18T12:54:35;1.85;;;0.80;;
21206;SDS011;10761;48.532;8.026;2023-09-18T12:57:12;2.35;;;1.13;;
21206;SDS011;10761;48.532;8.026;2023-09-18T12:59:41;3.83;;;1.38;;
21206;SDS011;10761;48.532;8.026;2023-09-18T13:02:06;2.85;;;0.98;;
21206;SDS011;10761;48.532;8.026;2023-09-18T13:04:36;5.20;;;0.90;;
21206;SDS011;10761;48.532;8.026;2023-09-18T13:07:14;2.83;;;0.98;;
21206;SDS011;10761;48.532;8.026;2023-09-18T13:09:40;1.90;;;0.70;;
21206;SDS011;10761;48.532;8.026;2023-09-18T13:12:06;6.53;;;1.17;;
21206;SDS011;10761;48.532;8.026;2023-09-18T13:17:43;1.90;;;0.90;;
21206;SDS011;10761;48.532;8.026;2023-09-18T13:22:40;2.35;;;0.70;;
21206;SDS011;10761;48.532;8.026;2023-09-18T13:25:08;1.48;;;0.80;;
21206;SDS011;10761;48.532;8.026;2023-09-18T13:27:36;2.33;;;0.70;;
21206;SDS011;10761;48.532;8.026;2023-09-18T13:30:02;2.60;;;1.20;;
21206;SDS011;10761;48.532;8.026;2023-09-18T13:32:33;1.48;;;0.73;;
21206;SDS011;10761;48.532;8.026;2023-09-18T13:34:59;2.13;;;0.80;;
21206;SDS011;10761;48.532;8.026;2023-09-18T13:37:25;4.28;;;0.85;;
21206;SDS011;10761;48.532;8.026;2023-09-18T13:39:52;3.40;;;0.80;;
21206;SDS011;10761;48.532;8.026;2023-09-18T13:42:17;2.17;;;0.77;;
21206;SDS011;10761;48.532;8.026;2023-09-18T13:44:43;2.28;;;0.75;;
21206;SDS011;10761;48.532;8.026;2023-09-18T13:47:11;2.35;;;0.80;;
21206;SDS011;10761;48.532;8.026;2023-09-18T13:49:38;1.35;;;0.80;;
21206;SDS011;10761;48.532;8.026;2023-09-18T13:52:03;4.53;;;0.73;;
21206;SDS011;10761;48.532;8.026;2023-09-18T13:54:29;1.02;;;0.75;;
21206;SDS011;10761;48.532;8.026;2023-09-18T13:56:55;1.75;;;0.75;;
21206;SDS011;10761;48.532;8.026;2023-09-18T13:59:21;3.30;;;0.70;;
21206;SDS011;10761;48.532;8.026;2023-09-18T14:01:46;2.00;;;0.65;;
21206;SDS011;10761;48.532;8.026;2023-09-18T14:04:12;2.55;;;1.05;;
21206;SDS011;10761;48.532;8.026;2023-09-18T14:06:39;1.65;;;0.75;;
21206;SDS011;10761;48.532;8.026;2023-09-18T14:09:04;1.40;;;0.68;;
21206;SDS011;10761;48.532;8.026;2023-09-18T14:11:31;1.10;;;0.52;;
21206;SDS011;10761;48.532;8.026;2023-09-18T14:13:56;1.38;;;0.68;;
21206;SDS011;10761;48.532;8.026;2023-09-18T14:16:22;2.17;;;0.70;;
21206;SDS011;10761;48.532;8.026;2023-09-18T14:18:47;2.85;;;0.80;;
21206;SDS011;10761;48.532;8.026;2023-09-18T14:21:13;3.60;;;0.88;;
21206;SDS011;10761;48.532;8.026;2023-09-18T14:23:39;1.30;;;0.70;;
21206;SDS011;10761;48.532;8.026;2023-09-18T14:26:04;1.83;;;1.00;;
21206;SDS011;10761;48.532;8.026;2023-09-18T14:28:30;3.53;;;1.00;;
21206;SDS011;10761;48.532;8.026;2023-09-18T14:30:57;3.30;;;0.77;;
21206;SDS011;10761;48.532;8.026;2023-09-18T14:33:23;2.17;;;1.00;;
21206;SDS011;10761;48.532;8.026;2023-09-18T14:35:49;3.25;;;1.10;;
21206;SDS011;10761;48.532;8.026;2023-09-18T14:38:15;2.47;;;1.08;;
21206;SDS011;10761;48.532;8.026;2023-09-18T14:40:41;2.42;;;0.90;;
21206;SDS011;10761;48.532;8.026;2023-09-18T14:43:07;1.38;;;0.80;;
21206;SDS011;10761;48.532;8.026;2023-09-18T14:45:33;1.15;;;0.77;;
21206;SDS011;10761;48.532;8.026;2023-09-18T14:47:59;2.88;;;1.70;;
21206;SDS011;10761;48.532;8.026;2023-09-18T14:50:25;2.28;;;0.82;;
21206;SDS011;10761;48.532;8.026;2023-09-18T14:52:51;3.85;;;0.90;;
21206;SDS011;10761;48.532;8.026;2023-09-18T14:55:16;3.70;;;1.00;;
21206;SDS011;10761;48.532;8.026;2023-09-18T14:57:42;2.22;;;0.90;;
21206;SDS011;10761;48.532;8.026;2023-09-18T15:00:07;1.63;;;0.98;;
21206;SDS011;10761;48.532;8.026;2023-09-18T15:02:33;2.80;;;1.10;;
21206;SDS011;10761;48.532;8.026;2023-09-18T15:05:00;1.88;;;0.77;;
21206;SDS011;10761;48.532;8.026;2023-09-18T15:07:25;1.58;;;0.80;;
21206;SDS011;10761;48.532;8.026;2023-09-18T15:09:52;1.75;;;0.65;;
21206;SDS011;10761;48.532;8.026;2023-09-18T15:12:18;2.58;;;0.90;;
21206;SDS011;10761;48.532;8.026;2023-09-18T15:14:43;1.92;;;0.90;;